Time;durP1;ratioP1;P1;durP2;ratioP2;P2;SDS_P1;SDS_P2;PMS_P1;PMS_P2;Temp;Humidity;BMP_temperature;BMP_pressure;BME280_temperature;BME280_humidity;BME280_pressure;Samples;Min_cycle;Max_cycle;Signal;HPM_P1;HPM_P2
2023/03/09 00:00:29;;;;;;;2.38;1.40;;;;;;;-0.39;89.08;99229.81;10555073;28;20051;-81
2023/03/09 00:05:30;;;;;;;1.42;1.20;;;;;;;-0.38;88.83;99229.88;10554193;28;20044;-81
2023/03/09 00:10:32;;;;;;;1.85;1.30;;;;;;;-0.39;88.89;99234.94;10539540;28;20491;-82
2023/03/09 00:15:33;;;;;;;1.33;1.23;;;;;;;-0.44;89.19;99229.66;10546107;28;20051;-82
2023/03/09 00:20:37;;;;;;;1.67;1.13;;;;;;;-0.50;89.69;99223.41;10521240;28;20036;-82
2023/03/09 00:25:39;;;;;;;1.33;1.10;;;;;;;-0.53;89.46;99213.88;10564643;28;20369;-81
2023/03/09 00:30:40;;;;;;;1.05;0.90;;;;;;;-0.54;89.99;99225.88;10560529;28;20579;-81
2023/03/09 00:35:42;;;;;;;1.55;1.45;;;;;;;-0.62;90.47;99214.44;10562628;27;20475;-81
2023/03/09 00:40:43;;;;;;;2.08;1.35;;;;;;;-0.60;90.17;99215.38;10549348;28;20049;-81
2023/03/09 00:45:45;;;;;;;2.42;1.98;;;;;;;-0.60;90.58;99235.94;10538921;28;20032;-81
2023/03/09 00:50:47;;;;;;;1.15;0.80;;;;;;;-0.57;90.97;99236.06;10531919;28;20044;-81
2023/03/09 00:55:48;;;;;;;3.58;1.02;;;;;;;-0.59;91.02;99237.69;10552639;28;20154;-81
2023/03/09 01:00:50;;;;;;;2.22;1.75;;;;;;;-0.61;91.34;99220.47;10528482;28;20492;-81
2023/03/09 01:05:52;;;;;;;1.60;1.35;;;;;;;-0.64;91.40;99213.50;10574566;28;20042;-81
2023/03/09 01:10:53;;;;;;;0.88;0.88;;;;;;;-0.62;91.19;99219.56;10550185;28;20498;-82
2023/03/09 01:15:55;;;;;;;1.70;1.45;;;;;;;-0.64;91.17;99216.06;10540583;28;20039;-81
2023/03/09 01:20:58;;;;;;;1.65;1.17;;;;;;;-0.67;91.84;99222.81;10557304;28;20096;-82
2023/03/09 01:25:59;;;;;;;1.10;1.00;;;;;;;-0.69;91.58;99225.34;10543721;28;20043;-81
2023/03/09 01:31:14;;;;;;;2.00;1.27;;;;;;;-0.68;92.05;99227.06;10514758;28;20399;-82
2023/03/09 01:36:18;;;;;;;1.90;1.70;;;;;;;-0.70;92.00;99223.56;10507181;28;20139;-82
2023/03/09 01:41:22;;;;;;;1.15;1.05;;;;;;;-0.76;92.34;99213.06;10533168;28;20415;-81
2023/03/09 01:46:30;;;;;;;0.80;0.75;;;;;;;-0.77;92.07;99216.44;10525492;28;20048;-83
2023/03/09 01:51:56;;;;;;;2.05;1.35;;;;;;;-0.75;92.13;99214.78;10567660;28;20099;-81
2023/03/09 01:57:06;;;;;;;3.30;1.48;;;;;;;-0.75;92.21;99215.69;10517101;28;20719;-81
2023/03/09 02:02:08;;;;;;;2.17;1.90;;;;;;;-0.75;92.65;99225.06;10542119;28;20036;-81
2023/03/09 02:07:12;;;;;;;2.50;1.63;;;;;;;-0.74;92.51;99226.84;10538781;27;20040;-82
2023/03/09 02:12:19;;;;;;;3.28;2.22;;;;;;;-0.73;92.91;99215.75;10539481;28;20576;-82
2023/03/09 02:17:22;;;;;;;1.40;1.27;;;;;;;-0.72;93.17;99223.50;10531701;28;20029;-82
2023/03/09 02:22:24;;;;;;;0.55;0.55;;;;;;;-0.70;92.84;99215.00;10533656;28;20048;-83
2023/03/09 02:27:27;;;;;;;1.83;1.55;;;;;;;-0.79;93.15;99205.25;10517294;28;20242;-81
2023/03/09 02:32:30;;;;;;;3.45;1.88;;;;;;;-0.78;92.90;99215.56;10536793;28;20335;-81
2023/03/09 02:37:35;;;;;;;1.23;0.80;;;;;;;-0.80;92.86;99224.91;10533130;28;20032;-81
2023/03/09 02:42:45;;;;;;;1.42;0.57;;;;;;;-0.76;93.19;99216.50;10532596;28;20435;-81
2023/03/09 02:47:49;;;;;;;3.08;2.28;;;;;;;-0.71;93.18;99226.94;10507864;28;20052;-82
2023/03/09 02:52:51;;;;;;;0.77;0.57;;;;;;;-0.72;93.27;99220.06;10506426;28;20097;-81
2023/03/09 02:57:53;;;;;;;1.05;0.95;;;;;;;-0.73;93.43;99244.03;10539352;28;20574;-82
2023/03/09 03:02:55;;;;;;;1.83;1.42;;;;;;;-0.74;93.16;99255.97;10527768;28;20044;-81
2023/03/09 03:07:57;;;;;;;1.17;0.82;;;;;;;-0.78;93.14;99251.56;10535636;28;20059;-82
2023/03/09 03:12:59;;;;;;;0.75;0.75;;;;;;;-0.78;93.50;99256.69;10516277;28;20123;-82
2023/03/09 03:18:00;;;;;;;1.40;1.30;;;;;;;-0.79;93.47;99257.50;10559099;28;20132;-81
2023/03/09 03:23:03;;;;;;;1.38;0.82;;;;;;;-0.78;93.25;99266.97;10539798;28;20040;-81
2023/03/09 03:28:13;;;;;;;;;;;;;;;-0.79;93.68;99280.66;10526897;28;20039;-82
2023/03/09 03:33:14;;;;;;;1.27;1.17;;;;;;;-0.75;93.87;99281.63;10527426;28;19928;-82
2023/03/09 03:38:16;;;;;;;2.30;1.80;;;;;;;-0.79;93.66;99300.34;10549099;28;20479;-82
2023/03/09 03:43:18;;;;;;;0.93;0.93;;;;;;;-0.77;93.76;99294.41;10548541;28;20032;-82
2023/03/09 03:48:22;;;;;;;1.73;1.30;;;;;;;-0.78;93.69;99307.22;10583168;28;20050;-82
2023/03/09 03:53:24;;;;;;;2.30;1.38;;;;;;;-0.74;93.55;99325.38;10571317;28;20136;-82
2023/03/09 03:58:30;;;;;;;0.60;0.60;;;;;;;-0.73;93.91;99322.00;10563032;28;20040;-82
2023/03/09 04:03:32;;;;;;;1.65;1.10;;;;;;;-0.74;93.76;99319.38;10570504;27;20131;-81
2023/03/09 04:08:34;;;;;;;1.35;1.23;;;;;;;-0.71;94.04;99327.19;10539954;28;20044;-82
2023/03/09 04:13:36;;;;;;;1.85;1.25;;;;;;;-0.74;93.94;99329.66;10511727;28;20040;-82
2023/03/09 04:18:38;;;;;;;2.50;1.77;;;;;;;-0.75;94.25;99333.03;10517889;28;20135;-82
2023/03/09 04:23:41;;;;;;;1.30;1.17;;;;;;;-0.73;94.32;99351.97;10558079;28;20604;-81
2023/03/09 04:28:44;;;;;;;3.65;1.60;;;;;;;-0.74;93.87;99345.06;10586995;28;20560;-82
2023/03/09 04:33:50;;;;;;;0.70;0.70;;;;;;;-0.83;94.02;99344.72;10590293;28;20067;-82
2023/03/09 04:38:54;;;;;;;2.45;1.58;;;;;;;-0.84;94.47;99350.66;10560534;27;20036;-82
2023/03/09 04:43:58;;;;;;;1.02;0.95;;;;;;;-0.90;94.29;99359.03;10569229;27;20406;-81
2023/03/09 04:49:00;;;;;;;0.82;0.82;;;;;;;-0.87;94.58;99358.25;10555106;28;20031;-81
2023/03/09 04:54:02;;;;;;;1.20;1.02;;;;;;;-0.91;94.65;99355.56;10568936;27;20036;-81
2023/03/09 04:59:05;;;;;;;2.38;0.85;;;;;;;-0.95;94.48;99357.97;10576378;27;20032;-82
2023/03/09 05:04:09;;;;;;;1.17;0.68;;;;;;;-0.91;94.88;99368.41;10578616;27;20101;-81
2023/03/09 05:09:14;;;;;;;2.30;1.85;;;;;;;-0.96;94.67;99364.81;10582783;27;20035;-81
2023/03/09 05:14:16;;;;;;;0.60;0.60;;;;;;;-1.00;95.03;99378.34;10567433;27;20042;-81
2023/03/09 05:19:21;;;;;;;1.70;1.25;;;;;;;-0.99;94.66;99384.34;10567774;28;20081;-81
2023/03/09 05:24:26;;;;;;;0.85;0.70;;;;;;;-0.98;95.26;99388.66;10566527;27;20085;-81
2023/03/09 05:29:27;;;;;;;1.85;1.58;;;;;;;-0.94;95.19;99401.69;10602967;27;20510;-83
2023/03/09 05:34:30;;;;;;;1.67;1.55;;;;;;;-0.96;95.33;99405.00;10560450;27;20074;-82
2023/03/09 05:39:35;;;;;;;2.50;1.55;;;;;;;-0.99;95.19;99400.66;10577432;27;20038;-81
2023/03/09 05:44:37;;;;;;;0.98;0.88;;;;;;;-0.99;95.67;99392.94;10571408;27;20613;-81
2023/03/09 05:49:40;;;;;;;0.82;0.80;;;;;;;-1.04;95.67;99404.72;10588657;27;20063;-81
2023/03/09 05:54:41;;;;;;;0.60;0.60;;;;;;;-1.02;95.49;99400.53;10572586;28;20049;-81
2023/03/09 05:59:47;;;;;;;2.03;1.27;;;;;;;-1.02;95.76;99430.47;10563265;28;20117;-81
2023/03/09 06:04:50;;;;;;;0.50;0.50;;;;;;;-0.99;95.70;99428.91;10545896;28;20479;-81
2023/03/09 06:09:52;;;;;;;1.60;1.50;;;;;;;-1.02;95.76;99446.78;10554993;28;20663;-81
2023/03/09 06:14:58;;;;;;;1.05;0.98;;;;;;;-1.01;96.08;99442.50;10524772;28;20405;-81
2023/03/09 06:20:03;;;;;;;3.47;3.15;;;;;;;-0.95;96.24;99459.03;10563810;27;20122;-86
2023/03/09 06:25:10;;;;;;;1.55;1.40;;;;;;;-0.88;96.03;99464.47;10582157;27;20052;-82
2023/03/09 06:30:12;;;;;;;1.92;1.60;;;;;;;-0.85;96.19;99477.44;10552447;28;20068;-82
2023/03/09 06:35:15;;;;;;;1.75;1.20;;;;;;;-0.87;96.36;99492.81;10570866;27;20046;-82
2023/03/09 06:40:17;;;;;;;2.20;1.25;;;;;;;-0.85;96.04;99495.44;10580520;27;20046;-82
2023/03/09 06:45:21;;;;;;;1.20;1.08;;;;;;;-0.90;96.45;99490.97;10582626;27;20403;-82
2023/03/09 06:50:25;;;;;;;0.95;0.77;;;;;;;-0.93;96.12;99505.38;10554699;27;20055;-82
2023/03/09 06:55:28;;;;;;;0.52;0.52;;;;;;;-0.78;96.62;99500.00;10572558;27;20054;-82
2023/03/09 07:00:40;;;;;;;0.55;0.55;;;;;;;-0.82;96.41;99510.97;10563862;27;20069;-83
2023/03/09 07:05:43;;;;;;;2.38;0.98;;;;;;;-0.78;96.05;99512.84;10548024;27;20058;-83
2023/03/09 07:10:44;;;;;;;0.30;0.30;;;;;;;-0.77;96.14;99520.63;10574641;27;20101;-83
2023/03/09 07:15:46;;;;;;;0.52;0.52;;;;;;;-0.65;96.25;99532.25;10598418;27;20073;-82
2023/03/09 07:20:48;;;;;;;0.82;0.63;;;;;;;-0.66;96.47;99528.81;10589184;27;20047;-83
2023/03/09 07:25:49;;;;;;;0.77;0.75;;;;;;;-0.66;96.67;99539.09;10586112;27;20051;-83
2023/03/09 07:30:51;;;;;;;2.33;1.75;;;;;;;-0.67;96.38;99539.91;10573275;28;20092;-83
2023/03/09 07:35:53;;;;;;;2.17;1.27;;;;;;;-0.55;96.14;99540.41;10570950;27;20784;-84
2023/03/09 07:40:57;;;;;;;1.20;1.08;;;;;;;-0.51;96.07;99540.53;10597649;27;20040;-84
2023/03/09 07:45:59;;;;;;;1.48;1.05;;;;;;;-0.45;96.00;99549.38;10565416;28;20043;-84
2023/03/09 07:51:00;;;;;;;0.95;0.95;;;;;;;-0.32;96.26;99558.47;10580607;28;20038;-83
2023/03/09 07:56:04;;;;;;;3.78;1.05;;;;;;;-0.37;95.83;99570.28;10572234;28;20126;-84
2023/03/09 08:01:07;;;;;;;1.20;1.10;;;;;;;-0.38;95.90;99573.66;10607679;28;20387;-80
2023/03/09 08:06:09;;;;;;;2.58;1.38;;;;;;;-0.31;95.71;99567.97;10571584;27;20115;-79
2023/03/09 08:11:11;;;;;;;2.45;0.90;;;;;;;-0.29;95.49;99561.16;10582959;27;20038;-78
2023/03/09 08:16:12;;;;;;;2.10;1.40;;;;;;;-0.33;95.59;99574.75;10598896;27;20403;-78
2023/03/09 08:21:14;;;;;;;0.55;0.55;;;;;;;-0.30;95.48;99584.25;10579272;27;20075;-79
2023/03/09 08:26:17;;;;;;;1.55;1.20;;;;;;;-0.25;95.63;99599.06;10604251;27;20050;-81
2023/03/09 08:31:20;;;;;;;1.77;1.40;;;;;;;-0.19;95.24;99604.47;10593612;27;20035;-80
2023/03/09 08:36:21;;;;;;;3.17;2.38;;;;;;;-0.15;95.64;99612.31;10598399;27;20061;-81
2023/03/09 08:41:23;;;;;;;1.90;1.55;;;;;;;-0.10;95.22;99609.13;10587390;27;20477;-82
2023/03/09 08:46:24;;;;;;;0.98;0.70;;;;;;;0.07;95.41;99620.09;10588142;27;20454;-80
2023/03/09 08:51:28;;;;;;;0.88;0.73;;;;;;;0.20;94.94;99636.06;10576963;27;20042;-79
2023/03/09 08:56:29;;;;;;;1.90;1.45;;;;;;;0.17;94.71;99635.09;10560527;27;20418;-81
2023/03/09 09:01:31;;;;;;;1.85;1.52;;;;;;;0.22;94.99;99650.72;10561489;27;20043;-80
2023/03/09 09:06:32;;;;;;;5.05;2.97;;;;;;;0.28;94.78;99650.97;10606631;27;20043;-80
2023/03/09 09:11:34;;;;;;;1.30;1.10;;;;;;;0.40;94.35;99660.88;10574234;27;20051;-81
2023/03/09 09:16:36;;;;;;;2.08;1.80;;;;;;;0.53;94.47;99665.69;10582755;27;20038;-81
2023/03/09 09:21:38;;;;;;;6.95;3.17;;;;;;;0.60;94.13;99672.00;10589880;27;20045;-81
2023/03/09 09:26:40;;;;;;;5.63;3.08;;;;;;;0.74;94.20;99679.38;10585834;27;20039;-85
2023/03/09 09:31:43;;;;;;;4.63;3.33;;;;;;;0.81;93.93;99692.56;10595999;27;20039;-82
2023/03/09 09:36:45;;;;;;;7.00;2.85;;;;;;;0.82;93.36;99694.28;10576621;27;20054;-83
2023/03/09 09:41:51;;;;;;;12.98;4.07;;;;;;;0.90;93.23;99692.00;10596777;27;20039;-82
2023/03/09 09:46:54;;;;;;;12.85;4.30;;;;;;;0.96;93.13;99693.94;10612237;27;20035;-84
2023/03/09 09:52:34;;;;;;;3.40;2.50;;;;;;;0.91;92.90;99692.91;10601289;27;20131;-82
2023/03/09 09:57:43;;;;;;;3.28;2.10;;;;;;;0.84;92.27;99707.25;10438109;28;20140;-82
2023/03/09 10:02:51;;;;;;;1.42;0.98;;;;;;;0.76;91.84;99708.66;10549614;27;20536;-83
2023/03/09 10:07:56;;;;;;;6.20;1.75;;;;;;;0.69;92.01;99720.41;10586639;27;20063;-83
2023/03/09 10:13:01;;;;;;;2.22;1.75;;;;;;;0.82;92.01;99725.22;10557171;28;20110;-82
2023/03/09 10:18:08;;;;;;;3.72;2.05;;;;;;;0.87;91.49;99738.28;10551295;28;20035;-83
2023/03/09 10:23:33;;;;;;;4.20;2.90;;;;;;;0.99;91.58;99743.03;10539295;28;20043;-83
2023/03/09 10:28:43;;;;;;;2.45;1.23;;;;;;;1.00;91.30;99734.50;10546009;28;20047;-83
2023/03/09 10:33:50;;;;;;;4.25;2.35;;;;;;;1.08;91.34;99727.94;10532550;28;20062;-84
2023/03/09 10:38:54;;;;;;;6.10;1.65;;;;;;;1.08;90.93;99729.63;10539125;28;20036;-82
2023/03/09 10:43:58;;;;;;;3.05;2.42;;;;;;;1.28;90.91;99725.25;10556340;28;20178;-85
2023/03/09 10:49:11;;;;;;;2.00;1.58;;;;;;;1.44;90.48;99724.09;10543122;28;20044;-81
2023/03/09 10:54:22;;;;;;;1.08;0.93;;;;;;;1.62;90.34;99739.38;10538510;28;20040;-82
2023/03/09 10:59:27;;;;;;;0.40;0.40;;;;;;;1.49;89.83;99743.22;10549095;28;20048;-82
2023/03/09 11:04:37;;;;;;;0.57;0.47;;;;;;;1.45;89.42;99755.09;10549937;28;20403;-83
2023/03/09 11:09:42;;;;;;;3.55;1.58;;;;;;;1.61;89.07;99766.00;10563483;28;20048;-81
2023/03/09 11:14:55;;;;;;;1.35;0.85;;;;;;;1.58;89.06;99769.34;10540537;28;20518;-82
2023/03/09 11:20:12;;;;;;;2.42;1.20;;;;;;;1.68;88.85;99763.72;10543009;28;20066;-84
2023/03/09 11:25:17;;;;;;;1.40;1.08;;;;;;;1.70;88.44;99767.22;10540402;28;20040;-82
2023/03/09 11:30:24;;;;;;;1.02;0.85;;;;;;;1.67;88.28;99761.94;10528008;28;20043;-83
2023/03/09 11:35:25;;;;;;;2.00;1.15;;;;;;;1.76;88.10;99757.13;10537048;28;20044;-82
2023/03/09 11:40:29;;;;;;;0.68;0.63;;;;;;;1.93;87.81;99744.78;10546382;28;20054;-82
2023/03/09 11:45:33;;;;;;;2.15;1.30;;;;;;;2.05;87.58;99743.47;10546702;28;20533;-82
2023/03/09 11:50:55;;;;;;;2.40;1.42;;;;;;;2.23;87.13;99743.22;10532470;28;20040;-82
2023/03/09 11:56:12;;;;;;;1.23;1.05;;;;;;;2.15;86.84;99747.25;10535567;28;20051;-83
2023/03/09 12:01:29;;;;;;;1.27;1.17;;;;;;;2.28;86.28;99734.81;10555274;28;20434;-83
2023/03/09 12:06:52;;;;;;;1.25;0.85;;;;;;;2.24;86.16;99748.44;10560123;28;20458;-81
2023/03/09 12:12:00;;;;;;;3.55;1.50;;;;;;;2.10;85.58;99722.16;10521326;28;20036;-84
2023/03/09 12:17:12;;;;;;;1.17;0.75;;;;;;;2.12;85.17;99728.25;10531497;28;20036;-81
2023/03/09 12:22:37;;;;;;;0.98;0.90;;;;;;;2.12;85.05;99729.97;10555364;28;20499;-80
2023/03/09 12:27:52;;;;;;;1.35;1.10;;;;;;;2.32;85.19;99742.66;10543532;28;20075;-80
2023/03/09 12:32:56;;;;;;;3.75;2.00;;;;;;;2.37;85.00;99741.09;10533742;28;20103;-80
2023/03/09 12:38:04;;;;;;;1.40;1.27;;;;;;;2.33;84.73;99734.06;10520294;28;20041;-82
2023/03/09 12:43:14;;;;;;;1.92;1.00;;;;;;;2.30;84.17;99751.22;10534764;28;20312;-82
2023/03/09 12:48:24;;;;;;;2.97;1.05;;;;;;;2.37;84.41;99775.59;10546554;28;20040;-82
2023/03/09 12:53:31;;;;;;;0.63;0.60;;;;;;;2.20;84.03;99750.88;10553101;28;20051;-82
2023/03/09 12:58:40;;;;;;;2.20;1.50;;;;;;;2.16;84.04;99761.91;10553184;28;20084;-83
2023/03/09 13:03:42;;;;;;;2.38;1.05;;;;;;;2.14;83.91;99748.94;10546252;28;20051;-82
2023/03/09 13:08:52;;;;;;;0.85;0.82;;;;;;;2.14;83.63;99748.94;10553951;28;20039;-82
2023/03/09 13:13:55;;;;;;;2.03;1.50;;;;;;;2.17;83.69;99764.56;10558136;28;20470;-83
2023/03/09 13:24:27;;;;;;;1.80;1.30;;;;;;;2.35;84.08;99768.59;10521037;28;20165;-82
2023/03/09 13:29:30;;;;;;;2.13;1.50;;;;;;;2.28;83.44;99760.66;10541096;28;20841;-82
2023/03/09 13:34:45;;;;;;;2.63;1.63;;;;;;;2.36;83.66;99760.00;10567823;27;20054;-82
2023/03/09 13:40:25;;;;;;;1.67;1.33;;;;;;;2.43;83.68;99741.31;10553447;28;20043;-82
2023/03/09 13:45:31;;;;;;;1.52;1.40;;;;;;;2.39;83.69;99734.31;10434222;28;20572;-78
2023/03/09 13:50:35;;;;;;;2.60;1.60;;;;;;;2.32;83.60;99742.66;10556666;28;20062;-81
2023/03/09 13:55:36;;;;;;;1.45;1.25;;;;;;;2.33;83.21;99754.72;10549261;28;20069;-81
2023/03/09 14:00:38;;;;;;;3.40;1.45;;;;;;;2.32;83.46;99737.50;10538107;28;20048;-83
2023/03/09 14:05:39;;;;;;;5.07;2.08;;;;;;;2.36;83.13;99739.34;10546754;28;20052;-82
2023/03/09 14:11:06;;;;;;;2.90;1.63;;;;;;;2.48;83.41;99737.19;10541828;28;20035;-82
2023/03/09 14:16:16;;;;;;;5.70;3.45;;;;;;;2.45;83.39;99737.09;10518237;28;20501;-82
2023/03/09 14:21:23;;;;;;;2.38;1.42;;;;;;;2.36;83.53;99734.16;10516070;28;20414;-82
2023/03/09 14:26:29;;;;;;;9.55;3.63;;;;;;;2.32;83.43;99725.44;10538925;28;20125;-81
2023/03/09 14:31:31;;;;;;;11.35;4.25;;;;;;;2.36;83.36;99723.84;10552339;28;20032;-81
2023/03/09 14:36:37;;;;;;;13.52;5.53;;;;;;;2.40;83.39;99723.13;10516914;28;20043;-82
2023/03/09 14:41:39;;;;;;;2.72;1.77;;;;;;;2.35;83.23;99728.13;10552459;28;20036;-81
2023/03/09 14:46:40;;;;;;;7.85;3.47;;;;;;;2.28;83.22;99716.72;10521697;28;20051;-81
2023/03/09 14:51:42;;;;;;;5.55;2.65;;;;;;;2.31;83.24;99713.34;10553894;28;20490;-81
2023/03/09 14:56:43;;;;;;;4.32;1.13;;;;;;;2.16;83.45;99711.13;10543902;28;20427;-82
2023/03/09 15:01:52;;;;;;;1.75;1.27;;;;;;;2.11;83.28;99694.63;10532255;28;20044;-81
2023/03/09 15:07:03;;;;;;;2.70;1.58;;;;;;;2.16;83.65;99689.59;10538204;28;20039;-82
2023/03/09 15:12:05;;;;;;;2.95;1.88;;;;;;;2.12;83.73;99689.50;10532717;28;20044;-81
2023/03/09 15:17:07;;;;;;;2.35;1.70;;;;;;;2.06;84.01;99675.53;10533796;28;20044;-82
2023/03/09 15:22:14;;;;;;;3.50;2.20;;;;;;;2.05;84.34;99678.91;10532609;28;20051;-85
2023/03/09 15:27:16;;;;;;;0.65;0.63;;;;;;;2.09;84.48;99680.78;10535742;28;20040;-84
2023/03/09 15:32:17;;;;;;;1.38;0.80;;;;;;;2.02;84.88;99676.25;10542477;28;20048;-81
2023/03/09 15:37:19;;;;;;;1.27;0.95;;;;;;;1.91;85.06;99676.75;10537161;28;20518;-83
2023/03/09 15:42:21;;;;;;;1.00;0.90;;;;;;;1.80;85.32;99654.84;10545529;28;20554;-81
2023/03/09 15:47:23;;;;;;;2.50;1.17;;;;;;;1.79;85.37;99653.09;10542544;28;20400;-83
2023/03/09 15:52:24;;;;;;;2.38;1.85;;;;;;;1.75;85.63;99661.56;10548906;28;20043;-84
2023/03/09 15:57:26;;;;;;;3.65;0.80;;;;;;;1.66;86.27;99653.50;10536801;28;20061;-82
2023/03/09 16:02:27;;;;;;;2.90;1.75;;;;;;;1.56;86.79;99670.34;10534866;28;20419;-83
2023/03/09 16:07:29;;;;;;;0.47;0.40;;;;;;;1.63;87.04;99674.91;10545336;28;20047;-83
2023/03/09 16:12:31;;;;;;;3.95;1.65;;;;;;;1.65;87.16;99673.28;10547331;28;20032;-83
2023/03/09 16:17:32;;;;;;;1.55;1.08;;;;;;;1.61;87.62;99686.91;10526268;28;20123;-83
2023/03/09 16:22:34;;;;;;;0.98;0.88;;;;;;;1.62;87.89;99680.88;10538165;28;20044;-82
2023/03/09 16:27:35;;;;;;;2.75;1.73;;;;;;;1.64;88.22;99676.69;10542387;28;20527;-83
2023/03/09 16:32:37;;;;;;;1.52;1.25;;;;;;;1.57;88.48;99678.16;10532157;28;20499;-83
2023/03/09 16:37:40;;;;;;;2.38;1.42;;;;;;;1.44;88.80;99685.41;10513641;28;20414;-83
2023/03/09 16:42:42;;;;;;;1.95;1.65;;;;;;;1.36;88.70;99677.38;10552459;28;20039;-83
2023/03/09 16:47:44;;;;;;;2.78;1.20;;;;;;;1.34;88.90;99679.03;10554702;28;20036;-82
2023/03/09 16:52:46;;;;;;;3.63;1.45;;;;;;;1.27;89.39;99675.34;10566071;28;20676;-82
2023/03/09 16:57:48;;;;;;;1.23;1.13;;;;;;;1.29;89.70;99676.31;10546167;28;20047;-82
2023/03/09 17:02:51;;;;;;;4.93;3.28;;;;;;;1.24;89.47;99675.25;10525639;28;20458;-84
2023/03/09 17:07:52;;;;;;;1.73;0.95;;;;;;;1.17;89.99;99662.94;10512632;28;20131;-83
2023/03/09 17:12:54;;;;;;;6.60;2.90;;;;;;;1.17;90.26;99686.16;10554479;28;20039;-83
2023/03/09 17:17:56;;;;;;;3.25;1.63;;;;;;;1.18;90.54;99667.28;10521984;28;20089;-83
2023/03/09 17:22:57;;;;;;;2.17;1.25;;;;;;;1.08;90.56;99675.50;10515333;28;20040;-84
2023/03/09 17:27:59;;;;;;;1.55;1.38;;;;;;;0.97;90.96;99672.50;10542749;28;20052;-82
2023/03/09 17:33:00;;;;;;;3.85;1.88;;;;;;;0.85;91.20;99668.63;10554207;28;20047;-82
2023/03/09 17:38:02;;;;;;;6.15;3.58;;;;;;;0.82;91.28;99672.81;10550281;28;20431;-81
2023/03/09 17:43:03;;;;;;;2.22;1.63;;;;;;;0.85;91.21;99662.63;10553714;28;20418;-81
2023/03/09 17:48:06;;;;;;;8.85;3.70;;;;;;;0.73;91.64;99652.72;10544135;28;20073;-81
2023/03/09 17:53:07;;;;;;;9.15;4.35;;;;;;;0.67;91.58;99673.09;10553388;28;20090;-81
2023/03/09 17:58:09;;;;;;;7.55;4.47;;;;;;;0.57;91.59;99661.56;10556198;28;20094;-83
2023/03/09 18:03:10;;;;;;;9.32;4.43;;;;;;;0.53;92.06;99650.25;10561642;28;20040;-84
2023/03/09 18:08:12;;;;;;;4.78;2.45;;;;;;;0.54;92.59;99658.84;10560460;28;20039;-82
2023/03/09 18:13:13;;;;;;;1.65;1.35;;;;;;;0.51;92.86;99648.41;10545402;28;20040;-82
2023/03/09 18:18:15;;;;;;;7.03;2.95;;;;;;;0.46;92.88;99632.78;10542165;28;20050;-82
2023/03/09 18:23:17;;;;;;;1.63;1.42;;;;;;;0.42;93.12;99628.38;10544872;28;20047;-81
2023/03/09 18:28:18;;;;;;;4.97;3.30;;;;;;;0.40;93.20;99622.25;10524233;28;20058;-81
2023/03/09 18:33:20;;;;;;;1.85;1.55;;;;;;;0.39;93.38;99637.66;10538581;28;20083;-82
2023/03/09 18:38:21;;;;;;;3.15;2.10;;;;;;;0.34;93.64;99627.16;10539212;28;20051;-80
2023/03/09 18:43:23;;;;;;;2.17;1.70;;;;;;;0.25;93.85;99634.53;10551009;28;20044;-81
2023/03/09 18:48:25;;;;;;;4.03;3.10;;;;;;;0.26;94.16;99613.13;10537417;28;20052;-81
2023/03/09 18:53:28;;;;;;;4.43;2.35;;;;;;;0.33;93.94;99612.53;10548885;28;20388;-81
2023/03/09 18:58:31;;;;;;;1.35;1.15;;;;;;;0.32;94.17;99618.50;10536227;28;20059;-82
2023/03/09 19:03:32;;;;;;;4.15;2.88;;;;;;;0.29;94.58;99602.94;10516249;28;20048;-81
2023/03/09 19:08:35;;;;;;;1.67;1.58;;;;;;;0.29;94.78;99603.81;10558778;28;20147;-82
2023/03/09 19:13:36;;;;;;;6.03;3.58;;;;;;;0.22;94.71;99591.50;10533018;28;20416;-81
2023/03/09 19:18:46;;;;;;;2.10;1.88;;;;;;;0.18;94.79;99587.03;10540863;28;20081;-81
2023/03/09 19:23:51;;;;;;;2.08;0.90;;;;;;;0.12;95.03;99568.78;10546322;28;20089;-81
2023/03/09 19:28:54;;;;;;;4.88;3.90;;;;;;;0.05;95.05;99566.81;10540772;28;20438;-81
2023/03/09 19:33:56;;;;;;;3.50;1.75;;;;;;;-0.11;94.95;99549.88;10530236;28;20052;-82
2023/03/09 19:39:00;;;;;;;1.92;1.45;;;;;;;-0.18;95.03;99548.75;10537651;28;20040;-79
2023/03/09 19:44:01;;;;;;;3.15;2.60;;;;;;;-0.22;95.02;99542.59;10545326;28;20396;-81
2023/03/09 19:49:03;;;;;;;2.10;1.40;;;;;;;-0.27;95.10;99543.22;10537257;28;20049;-80
2023/03/09 19:54:06;;;;;;;2.53;1.80;;;;;;;-0.28;95.20;99532.06;10535214;28;20415;-80
2023/03/09 19:59:13;;;;;;;1.83;1.67;;;;;;;-0.34;95.34;99536.97;10535000;28;20051;-80
2023/03/09 20:04:21;;;;;;;3.00;1.83;;;;;;;-0.34;95.49;99526.69;10550069;28;20572;-80
2023/03/09 20:09:25;;;;;;;2.05;1.08;;;;;;;-0.38;95.45;99520.50;10557809;28;20044;-80
2023/03/09 20:14:28;;;;;;;1.83;1.50;;;;;;;-0.47;95.33;99496.13;10550351;28;20058;-80
2023/03/09 20:19:30;;;;;;;2.50;1.95;;;;;;;-0.45;95.83;99505.66;10558568;28;20044;-79
2023/03/09 20:24:31;;;;;;;2.65;1.92;;;;;;;-0.48;95.82;99482.41;10534534;28;20565;-80
2023/03/09 20:29:34;;;;;;;1.48;1.13;;;;;;;-0.49;95.99;99479.78;10556858;28;20032;-80
2023/03/09 20:34:37;;;;;;;1.33;1.15;;;;;;;-0.52;96.27;99464.22;10563215;27;20134;-80
2023/03/09 20:39:39;;;;;;;2.95;1.65;;;;;;;-0.57;96.25;99446.91;10538656;28;20070;-79
2023/03/09 20:44:41;;;;;;;4.75;2.25;;;;;;;-0.55;96.22;99439.25;10556835;28;20351;-80
2023/03/09 20:49:42;;;;;;;2.22;1.65;;;;;;;-0.56;95.87;99427.19;10530205;28;20043;-81
2023/03/09 20:54:44;;;;;;;2.65;2.38;;;;;;;-0.59;96.29;99427.06;10550163;28;20039;-80
2023/03/09 20:59:45;;;;;;;3.30;2.90;;;;;;;-0.68;96.61;99407.00;10548714;28;20035;-80
2023/03/09 21:04:47;;;;;;;2.38;1.80;;;;;;;-0.66;96.45;99395.13;10526954;28;20048;-80
2023/03/09 21:09:48;;;;;;;1.05;0.95;;;;;;;-0.67;96.57;99392.50;10558041;28;20483;-80
2023/03/09 21:14:54;;;;;;;1.13;1.05;;;;;;;-0.66;96.62;99389.06;10540660;28;20052;-81
2023/03/09 21:19:56;;;;;;;0.35;0.35;;;;;;;-0.67;96.92;99372.78;10547940;28;20048;-81
2023/03/09 21:24:58;;;;;;;2.35;2.15;;;;;;;-0.67;96.81;99366.78;10539628;28;20059;-80
2023/03/09 21:29:59;;;;;;;4.50;1.88;;;;;;;-0.73;97.06;99355.41;10567930;27;20047;-81
2023/03/09 21:35:01;;;;;;;2.90;2.05;;;;;;;-0.75;96.93;99346.78;10543549;28;20036;-81
2023/03/09 21:40:05;;;;;;;1.33;1.23;;;;;;;-0.73;96.94;99331.41;10536802;28;20050;-81
2023/03/09 21:45:08;;;;;;;1.90;1.42;;;;;;;-0.80;96.88;99340.56;10553339;28;20048;-81
2023/03/09 21:50:09;;;;;;;2.03;1.55;;;;;;;-0.74;97.26;99345.06;10524853;28;20040;-80
2023/03/09 21:55:11;;;;;;;0.88;0.88;;;;;;;-0.74;96.92;99325.38;10578068;27;20054;-80
2023/03/09 22:00:15;;;;;;;0.40;0.40;;;;;;;-0.72;97.35;99325.47;10560822;27;20035;-81
2023/03/09 22:05:16;;;;;;;1.67;1.58;;;;;;;-0.75;97.45;99309.91;10574240;27;20047;-81
2023/03/09 22:10:18;;;;;;;4.20;2.40;;;;;;;-0.80;97.20;99299.44;10569185;27;20505;-81
2023/03/09 22:15:19;;;;;;;1.17;0.80;;;;;;;-0.76;97.56;99285.03;10575960;27;20108;-80
2023/03/09 22:20:22;;;;;;;1.23;1.00;;;;;;;-0.75;97.54;99266.19;10585429;27;20589;-80
2023/03/09 22:25:23;;;;;;;2.30;1.35;;;;;;;-0.77;97.57;99260.13;10565849;27;20719;-80
2023/03/09 22:30:25;;;;;;;0.63;0.63;;;;;;;-0.76;97.57;99243.91;10591766;27;20395;-81
2023/03/09 22:35:26;;;;;;;1.38;1.27;;;;;;;-0.82;97.59;99248.81;10585478;27;20054;-82
2023/03/09 22:40:28;;;;;;;1.95;1.20;;;;;;;-0.82;97.83;99220.53;10575357;27;20146;-80
2023/03/09 22:45:29;;;;;;;0.82;0.77;;;;;;;-0.81;97.83;99205.19;10566683;27;20059;-81
2023/03/09 22:50:31;;;;;;;2.13;1.92;;;;;;;-0.82;97.62;99202.56;10584140;27;20088;-81
2023/03/09 22:55:32;;;;;;;1.70;1.50;;;;;;;-0.83;97.78;99185.38;10557426;28;20519;-80
2023/03/09 23:00:34;;;;;;;0.15;0.15;;;;;;;-0.82;98.13;99174.28;10582897;27;20069;-82
2023/03/09 23:05:40;;;;;;;0.30;0.30;;;;;;;-0.84;97.94;99160.47;10565031;27;20050;-81
2023/03/09 23:10:49;;;;;;;0.73;0.73;;;;;;;-0.87;97.82;99147.53;10585516;27;20038;-80
2023/03/09 23:15:51;;;;;;;1.13;1.05;;;;;;;-0.84;98.03;99138.25;10581368;27;20049;-80
2023/03/09 23:21:09;;;;;;;1.05;0.90;;;;;;;-0.84;98.04;99124.50;10600469;27;20039;-80
2023/03/09 23:26:10;;;;;;;2.03;1.60;;;;;;;-0.84;97.83;99107.41;10569041;27;20031;-81
2023/03/09 23:31:13;;;;;;;0.20;0.20;;;;;;;-0.85;98.08;99095.38;10561824;28;20490;-81
2023/03/09 23:36:16;;;;;;;1.38;1.17;;;;;;;-0.86;98.16;99093.59;10573667;28;20418;-81
2023/03/09 23:41:21;;;;;;;1.27;1.15;;;;;;;-0.85;97.94;99079.09;10584710;28;20039;-81
2023/03/09 23:46:22;;;;;;;0.98;0.85;;;;;;;-0.87;98.03;99075.56;10591839;27;20546;-81